Time;durP1;ratioP1;P1;durP2;ratioP2;P2;SDS_P1;SDS_P2;PMS_P1;PMS_P2;Temp;Humidity;BMP_temperature;BMP_pressure;BME280_temperature;BME280_humidity;BME280_pressure;Samples;Min_cycle;Max_cycle;Signal;HPM_P1;HPM_P2
2024/01/13 10:43:26;;;;;;;3.38;3.08;;;;;;;;;;5479732;23;20052;-67
2024/01/13 10:45:55;;;;;;;3.28;2.97;;;;;;;;;;4915445;29;20079;-66
2024/01/13 10:48:49;;;;;;;3.80;3.17;;;;;;;;;;4912173;29;20377;-66
2024/01/13 10:51:23;;;;;;;4.30;3.20;;;;;;;;;;4912501;29;20115;-66
2024/01/13 10:53:52;;;;;;;4.65;3.55;;;;;;;;;;4912018;29;20050;-66
2024/01/13 10:56:19;;;;;;;4.78;4.07;;;;;;;;;;4913145;29;20043;-65
2024/01/13 10:58:46;;;;;;;4.53;3.60;;;;;;;;;;4913221;29;20308;-66
2024/01/13 11:01:12;;;;;;;4.50;3.58;;;;;;;;;;4911786;29;20626;-66
2024/01/13 11:03:43;;;;;;;4.40;3.28;;;;;;;;;;4912406;29;20084;-66
2024/01/13 11:06:09;;;;;;;5.22;3.30;;;;;;;;;;4911578;29;20034;-67
2024/01/13 11:08:36;;;;;;;4.20;3.10;;;;;;;;;;4895664;29;20020;-66
2024/01/13 11:11:03;;;;;;;4.13;3.63;;;;;;;;;;4912764;29;20028;-66
2024/01/13 11:13:45;;;;;;;3.83;3.28;;;;;;;;;;4912278;29;20032;-66
2024/01/13 11:16:17;;;;;;;4.20;3.55;;;;;;;;;;4910658;29;20024;-66
2024/01/13 11:18:50;;;;;;;4.18;3.38;;;;;;;;;;4911884;29;20020;-66
2024/01/13 11:21:17;;;;;;;3.90;3.25;;;;;;;;;;4912475;29;20032;-67
2024/01/13 11:23:57;;;;;;;3.40;3.10;;;;;;;;;;4912352;29;20020;-67
2024/01/13 11:26:38;;;;;;;3.70;2.97;;;;;;;;;;4910873;29;20024;-65
2024/01/13 11:29:21;;;;;;;3.42;3.13;;;;;;;;;;4895562;29;20557;-67
2024/01/13 11:31:54;;;;;;;3.72;3.22;;;;;;;;;;4912001;29;20124;-65
2024/01/13 11:34:20;;;;;;;5.70;3.53;;;;;;;;;;4911493;29;20024;-65
2024/01/13 11:37:06;;;;;;;4.25;3.33;;;;;;;;;;4912295;29;20918;-66
2024/01/13 11:39:32;;;;;;;3.55;2.95;;;;;;;;;;4910422;29;20028;-66
2024/01/13 11:41:58;;;;;;;4.13;3.40;;;;;;;;;;4912407;29;20035;-66
2024/01/13 11:44:36;;;;;;;3.20;2.90;;;;;;;;;;4907892;29;20048;-67
2024/01/13 11:47:02;;;;;;;3.72;3.13;;;;;;;;;;4907955;29;20096;-65
2024/01/13 11:49:31;;;;;;;4.65;3.55;;;;;;;;;;4894320;29;20425;-65
2024/01/13 11:51:58;;;;;;;3.55;3.05;;;;;;;;;;4915813;29;20032;-66
2024/01/13 11:54:28;;;;;;;3.72;3.05;;;;;;;;;;4911348;29;20100;-66
2024/01/13 11:56:54;;;;;;;4.30;3.25;;;;;;;;;;4905950;29;20079;-65
2024/01/13 11:59:20;;;;;;;4.07;3.28;;;;;;;;;;4915973;29;20035;-65
2024/01/13 12:01:46;;;;;;;3.88;3.13;;;;;;;;;;4916905;29;20123;-67
2024/01/13 12:04:15;;;;;;;4.18;3.40;;;;;;;;;;4915000;29;20024;-65
2024/01/13 12:06:42;;;;;;;3.70;3.20;;;;;;;;;;4899058;29;20028;-67
2024/01/13 12:09:08;;;;;;;4.40;3.40;;;;;;;;;;4913668;29;20555;-66
2024/01/13 12:11:34;;;;;;;4.78;3.20;;;;;;;;;;4915361;29;20036;-66
2024/01/13 12:14:03;;;;;;;3.90;3.08;;;;;;;;;;4915754;29;20029;-66
2024/01/13 12:16:29;;;;;;;5.45;3.05;;;;;;;;;;4914888;29;20028;-64
2024/01/13 12:18:55;;;;;;;3.78;3.10;;;;;;;;;;4915210;29;20079;-65
2024/01/13 12:21:20;;;;;;;3.47;2.80;;;;;;;;;;4915314;29;20116;-64
2024/01/13 12:23:46;;;;;;;3.60;2.90;;;;;;;;;;4899580;29;20091;-64
2024/01/13 12:26:12;;;;;;;4.18;3.30;;;;;;;;;;4917116;29;20028;-66
2024/01/13 12:28:41;;;;;;;6.80;3.58;;;;;;;;;;4916302;29;20025;-68
2024/01/13 12:31:07;;;;;;;4.15;2.92;;;;;;;;;;4913726;29;20024;-65
2024/01/13 12:33:33;;;;;;;4.13;3.00;;;;;;;;;;4915511;29;20034;-64
2024/01/13 12:36:03;;;;;;;3.55;2.90;;;;;;;;;;4915718;29;20056;-65
2024/01/13 12:38:29;;;;;;;15.50;3.33;;;;;;;;;;4916651;29;20028;-66
2024/01/13 12:40:57;;;;;;;4.38;3.30;;;;;;;;;;4916305;29;20114;-65
2024/01/13 12:43:23;;;;;;;3.45;3.03;;;;;;;;;;4916789;29;20514;-65
2024/01/13 12:45:50;;;;;;;6.88;3.30;;;;;;;;;;4915916;29;20060;-65
2024/01/13 12:48:18;;;;;;;3.97;3.17;;;;;;;;;;4916175;29;20059;-65
2024/01/13 12:50:44;;;;;;;3.80;2.88;;;;;;;;;;4916177;29;20030;-66
2024/01/13 12:53:11;;;;;;;4.60;3.10;;;;;;;;;;4916974;29;20103;-60
2024/01/13 12:55:37;;;;;;;8.77;3.22;;;;;;;;;;4915639;29;20039;-65
2024/01/13 12:58:04;;;;;;;3.58;3.03;;;;;;;;;;4916261;29;20036;-65
2024/01/13 13:00:31;;;;;;;4.03;3.17;;;;;;;;;;4916074;29;20034;-68
2024/01/13 13:02:56;;;;;;;4.85;2.83;;;;;;;;;;4916211;29;20154;-68
2024/01/13 13:05:23;;;;;;;4.65;3.38;;;;;;;;;;4916381;29;20111;-65
2024/01/13 13:07:49;;;;;;;4.47;3.28;;;;;;;;;;4918056;29;20060;-63
2024/01/13 13:10:15;;;;;;;4.07;3.22;;;;;;;;;;4916997;29;20020;-66
2024/01/13 13:12:49;;;;;;;4.97;3.40;;;;;;;;;;4916292;29;20067;-65
2024/01/13 13:15:15;;;;;;;4.07;3.17;;;;;;;;;;4916632;29;20028;-65
2024/01/13 13:17:41;;;;;;;4.25;2.92;;;;;;;;;;4916089;29;20032;-65
2024/01/13 13:20:07;;;;;;;3.70;3.13;;;;;;;;;;4915835;29;20068;-66
2024/01/13 13:22:38;;;;;;;4.10;3.25;;;;;;;;;;4916458;29;20028;-65
2024/01/13 13:25:05;;;;;;;7.82;3.00;;;;;;;;;;4918563;29;20073;-65
2024/01/13 13:27:31;;;;;;;5.22;3.17;;;;;;;;;;4920334;29;20080;-65
2024/01/13 13:29:57;;;;;;;4.82;3.33;;;;;;;;;;4919276;29;20496;-65
2024/01/13 13:32:23;;;;;;;4.13;3.38;;;;;;;;;;4920074;29;20032;-65
2024/01/13 13:34:48;;;;;;;4.30;3.60;;;;;;;;;;4920684;29;20388;-67
2024/01/13 13:37:14;;;;;;;3.50;3.20;;;;;;;;;;4919633;29;20028;-65
2024/01/13 13:39:39;;;;;;;3.40;2.90;;;;;;;;;;4919462;29;20028;-65
2024/01/13 13:42:06;;;;;;;6.07;3.33;;;;;;;;;;4920012;29;20115;-67
2024/01/13 13:44:34;;;;;;;3.88;3.13;;;;;;;;;;4918840;29;20072;-65
2024/01/13 13:47:01;;;;;;;4.70;3.10;;;;;;;;;;4901960;29;20032;-65
2024/01/13 13:49:26;;;;;;;4.25;3.00;;;;;;;;;;4919462;29;20028;-66
2024/01/13 13:51:53;;;;;;;3.80;3.00;;;;;;;;;;4919546;29;20040;-65
2024/01/13 13:54:20;;;;;;;5.53;3.10;;;;;;;;;;4919635;29;20028;-65
2024/01/13 13:56:45;;;;;;;4.57;3.13;;;;;;;;;;4919208;29;20067;-65
2024/01/13 13:59:11;;;;;;;4.07;3.03;;;;;;;;;;4919743;29;20032;-65
2024/01/13 14:01:37;;;;;;;3.55;3.13;;;;;;;;;;4919745;29;20524;-65
2024/01/13 14:04:04;;;;;;;4.03;3.00;;;;;;;;;;4919391;29;20032;-65
2024/01/13 14:06:30;;;;;;;5.93;3.05;;;;;;;;;;4918806;29;20023;-65
2024/01/13 14:08:56;;;;;;;7.35;3.95;;;;;;;;;;4918602;29;20048;-65
2024/01/13 14:11:22;;;;;;;4.15;3.50;;;;;;;;;;4919726;29;20035;-65
2024/01/13 14:13:48;;;;;;;4.20;3.30;;;;;;;;;;4919435;29;20099;-65
2024/01/13 14:16:15;;;;;;;5.05;3.40;;;;;;;;;;4919140;29;20024;-64
2024/01/13 14:18:47;;;;;;;4.03;3.10;;;;;;;;;;4919536;29;20042;-64
2024/01/13 14:21:23;;;;;;;5.00;3.20;;;;;;;;;;4919471;29;20028;-64
2024/01/13 14:23:49;;;;;;;3.60;2.90;;;;;;;;;;4918550;29;20043;-64
2024/01/13 14:26:14;;;;;;;3.83;3.42;;;;;;;;;;4919130;29;20028;-65
2024/01/13 14:28:40;;;;;;;5.30;3.20;;;;;;;;;;4919771;29;20083;-65
2024/01/13 14:31:06;;;;;;;3.92;2.90;;;;;;;;;;4918468;29;20107;-64
2024/01/13 14:33:32;;;;;;;4.63;3.10;;;;;;;;;;4919946;29;20036;-64
2024/01/13 14:35:59;;;;;;;3.38;2.63;;;;;;;;;;4918388;29;20028;-64
2024/01/13 14:38:24;;;;;;;4.57;2.90;;;;;;;;;;4917842;29;20024;-67
2024/01/13 14:40:50;;;;;;;3.85;3.00;;;;;;;;;;4918096;29;20032;-64
2024/01/13 14:43:15;;;;;;;4.47;3.38;;;;;;;;;;4917726;29;20051;-64
2024/01/13 14:45:41;;;;;;;4.88;3.50;;;;;;;;;;4917580;29;20048;-67
2024/01/13 14:48:07;;;;;;;4.05;3.33;;;;;;;;;;4917687;29;20028;-65
2024/01/13 14:50:36;;;;;;;4.20;3.05;;;;;;;;;;4917706;29;20385;-64
2024/01/13 14:53:02;;;;;;;4.28;3.65;;;;;;;;;;4918410;29;20024;-65
2024/01/13 14:55:27;;;;;;;3.95;3.25;;;;;;;;;;4917592;29;20028;-65
2024/01/13 14:57:53;;;;;;;3.80;2.92;;;;;;;;;;4900639;29;20028;-64
2024/01/13 15:00:19;;;;;;;4.03;3.53;;;;;;;;;;4917351;29;20040;-64
2024/01/13 15:02:45;;;;;;;4.20;3.10;;;;;;;;;;4917394;29;20032;-64
2024/01/13 15:05:11;;;;;;;3.53;3.00;;;;;;;;;;4917421;29;20024;-64
2024/01/13 15:07:36;;;;;;;3.70;3.30;;;;;;;;;;4917611;29;20032;-64
2024/01/13 15:10:03;;;;;;;5.10;3.40;;;;;;;;;;4917334;29;20031;-64
2024/01/13 15:12:28;;;;;;;4.43;3.40;;;;;;;;;;4917143;29;20449;-64
2024/01/13 15:14:54;;;;;;;5.80;3.20;;;;;;;;;;4917208;29;20032;-64
2024/01/13 15:17:19;;;;;;;3.60;2.90;;;;;;;;;;4918059;29;20035;-64
2024/01/13 15:19:45;;;;;;;4.28;3.50;;;;;;;;;;4917069;29;20032;-64
2024/01/13 15:22:10;;;;;;;3.63;2.92;;;;;;;;;;4917400;29;20103;-64
2024/01/13 15:24:36;;;;;;;4.82;3.10;;;;;;;;;;4917328;29;20469;-64
2024/01/13 15:27:02;;;;;;;4.38;3.47;;;;;;;;;;4917026;29;20031;-64
2024/01/13 15:29:28;;;;;;;4.35;3.63;;;;;;;;;;4916919;29;20020;-64
2024/01/13 15:31:56;;;;;;;4.70;3.25;;;;;;;;;;4916817;29;20036;-64
2024/01/13 15:34:22;;;;;;;4.47;3.22;;;;;;;;;;4917095;29;20032;-64
2024/01/13 15:36:49;;;;;;;6.55;3.47;;;;;;;;;;4917481;29;20043;-64
2024/01/13 15:39:14;;;;;;;4.78;3.50;;;;;;;;;;4916973;29;20032;-63
2024/01/13 15:41:40;;;;;;;3.70;3.30;;;;;;;;;;4917184;29;20039;-64
2024/01/13 15:44:06;;;;;;;4.82;3.53;;;;;;;;;;4916765;29;20378;-63
2024/01/13 15:46:33;;;;;;;3.92;3.17;;;;;;;;;;4916185;29;20470;-64
2024/01/13 15:48:58;;;;;;;6.38;3.45;;;;;;;;;;4916787;29;20393;-63
2024/01/13 15:51:24;;;;;;;5.22;3.35;;;;;;;;;;4916496;29;20030;-64
2024/01/13 15:53:50;;;;;;;4.45;3.55;;;;;;;;;;4916256;29;20028;-67
2024/01/13 15:56:16;;;;;;;5.03;3.40;;;;;;;;;;4908899;29;20032;-69
2024/01/13 15:58:41;;;;;;;4.75;3.83;;;;;;;;;;4916860;29;20107;-68
2024/01/13 16:01:09;;;;;;;5.15;3.38;;;;;;;;;;4916947;29;20507;-68
2024/01/13 16:03:35;;;;;;;5.70;3.70;;;;;;;;;;4916440;29;20028;-68
2024/01/13 16:06:00;;;;;;;6.97;4.30;;;;;;;;;;4916208;29;20031;-67
2024/01/13 16:08:26;;;;;;;6.70;3.80;;;;;;;;;;4916716;29;20040;-69
2024/01/13 16:10:52;;;;;;;5.65;3.85;;;;;;;;;;4916543;29;20062;-68
2024/01/13 16:13:18;;;;;;;5.22;3.92;;;;;;;;;;4916286;29;20028;-70
2024/01/13 16:15:43;;;;;;;4.68;3.33;;;;;;;;;;4916987;29;20032;-69
2024/01/13 16:18:09;;;;;;;5.10;3.83;;;;;;;;;;4916434;29;20028;-68
2024/01/13 16:20:36;;;;;;;4.13;3.30;;;;;;;;;;4916902;29;20581;-69
2024/01/13 16:23:03;;;;;;;4.80;3.85;;;;;;;;;;4916540;29;20020;-68
2024/01/13 16:25:29;;;;;;;5.40;4.20;;;;;;;;;;4916155;29;20024;-68
2024/01/13 16:27:56;;;;;;;5.57;4.15;;;;;;;;;;4916239;29;20405;-69
2024/01/13 16:30:22;;;;;;;5.93;4.40;;;;;;;;;;4916452;29;20032;-68
2024/01/13 16:32:48;;;;;;;5.97;3.97;;;;;;;;;;4916263;29;20088;-70
2024/01/13 16:35:13;;;;;;;7.22;4.05;;;;;;;;;;4916356;29;20080;-69
2024/01/13 16:37:39;;;;;;;5.30;4.18;;;;;;;;;;4916688;29;20437;-68
2024/01/13 16:40:05;;;;;;;6.43;4.43;;;;;;;;;;4916160;29;20495;-68
2024/01/13 16:42:31;;;;;;;5.15;4.15;;;;;;;;;;4916087;29;20024;-69
2024/01/13 16:44:56;;;;;;;7.68;4.07;;;;;;;;;;4915707;29;20140;-68
2024/01/13 16:47:22;;;;;;;5.50;4.03;;;;;;;;;;4916554;29;20035;-69
2024/01/13 16:49:48;;;;;;;6.32;4.35;;;;;;;;;;4916017;29;20031;-69
2024/01/13 16:52:13;;;;;;;5.95;3.95;;;;;;;;;;4915896;29;20072;-68
2024/01/13 16:54:42;;;;;;;8.02;4.22;;;;;;;;;;4916355;29;20036;-69
2024/01/13 16:57:08;;;;;;;5.88;3.88;;;;;;;;;;4916059;29;20020;-69
2024/01/13 16:59:34;;;;;;;5.47;4.00;;;;;;;;;;4918634;29;20087;-69
2024/01/13 17:02:00;;;;;;;6.00;4.43;;;;;;;;;;4887025;29;20187;-70
2024/01/13 17:04:26;;;;;;;6.78;4.25;;;;;;;;;;4920029;29;20043;-68
2024/01/13 17:06:51;;;;;;;5.85;4.43;;;;;;;;;;4919632;29;20039;-71
2024/01/13 17:09:17;;;;;;;5.82;3.95;;;;;;;;;;4919591;29;20030;-71
2024/01/13 17:11:43;;;;;;;7.45;3.83;;;;;;;;;;4919454;29;20389;-68
2024/01/13 17:14:08;;;;;;;8.23;4.70;;;;;;;;;;4919311;29;20119;-66
2024/01/13 17:16:34;;;;;;;7.40;5.03;;;;;;;;;;4919388;29;20103;-67
2024/01/13 17:18:59;;;;;;;6.75;4.47;;;;;;;;;;4919945;29;20087;-67
2024/01/13 17:21:25;;;;;;;5.70;4.63;;;;;;;;;;4918985;29;20465;-69
2024/01/13 17:23:55;;;;;;;8.32;4.72;;;;;;;;;;4919266;29;20104;-68
2024/01/13 17:26:20;;;;;;;;;;;;;;;;;;4919307;29;20024;-69
2024/01/13 17:28:47;;;;;;;8.13;4.40;;;;;;;;;;4917405;29;19923;-68
2024/01/13 17:31:15;;;;;;;11.63;5.32;;;;;;;;;;4917819;29;20159;-70
2024/01/13 17:33:42;;;;;;;8.45;5.25;;;;;;;;;;4917615;29;20031;-69
2024/01/13 17:36:08;;;;;;;14.25;6.10;;;;;;;;;;4918992;29;20028;-72
2024/01/13 17:38:33;;;;;;;10.80;5.40;;;;;;;;;;4918172;29;20501;-71
2024/01/13 17:40:59;;;;;;;20.95;7.75;;;;;;;;;;4917121;29;20470;-71
2024/01/13 17:43:24;;;;;;;17.42;6.72;;;;;;;;;;4916772;29;20088;-71
2024/01/13 17:45:50;;;;;;;14.57;6.40;;;;;;;;;;4918098;29;20113;-72
2024/01/13 17:48:15;;;;;;;15.55;6.57;;;;;;;;;;4918580;29;20044;-71
2024/01/13 17:50:41;;;;;;;11.90;6.07;;;;;;;;;;4918572;29;20055;-71
2024/01/13 17:53:08;;;;;;;15.13;6.40;;;;;;;;;;4918162;29;20036;-71
2024/01/13 17:55:36;;;;;;;8.25;5.57;;;;;;;;;;4918132;29;20040;-70
2024/01/13 17:58:02;;;;;;;11.43;6.13;;;;;;;;;;4917827;29;20025;-71
2024/01/13 18:00:27;;;;;;;11.57;6.43;;;;;;;;;;4918467;29;20056;-70
2024/01/13 18:02:53;;;;;;;9.27;6.35;;;;;;;;;;4918260;29;20024;-70
2024/01/13 18:05:22;;;;;;;12.13;6.30;;;;;;;;;;4917840;29;20111;-71
2024/01/13 18:07:48;;;;;;;9.85;6.45;;;;;;;;;;4917936;29;20071;-70
2024/01/13 18:10:14;;;;;;;18.83;7.25;;;;;;;;;;4917549;29;20032;-70
2024/01/13 18:12:40;;;;;;;14.95;7.28;;;;;;;;;;4917836;29;20385;-72
2024/01/13 18:15:06;;;;;;;14.32;7.28;;;;;;;;;;4918608;29;20032;-70
2024/01/13 18:17:32;;;;;;;10.07;6.32;;;;;;;;;;4917727;29;20032;-72
2024/01/13 18:19:58;;;;;;;11.80;7.30;;;;;;;;;;4901111;29;20632;-70
2024/01/13 18:22:23;;;;;;;14.75;7.78;;;;;;;;;;4917786;29;20039;-71
2024/01/13 18:24:49;;;;;;;12.00;7.22;;;;;;;;;;4917916;29;20032;-71
2024/01/13 18:27:14;;;;;;;14.48;7.65;;;;;;;;;;4917776;29;20037;-72
2024/01/13 18:29:40;;;;;;;15.50;7.75;;;;;;;;;;4917673;29;20445;-70
2024/01/13 18:32:05;;;;;;;12.55;7.32;;;;;;;;;;4917846;29;20045;-71
2024/01/13 18:34:31;;;;;;;18.27;8.20;;;;;;;;;;4916931;29;20388;-71
2024/01/13 18:36:58;;;;;;;15.82;9.55;;;;;;;;;;4900073;29;20032;-71
2024/01/13 18:39:23;;;;;;;17.52;9.43;;;;;;;;;;4917316;29;20039;-74
2024/01/13 18:41:49;;;;;;;16.45;9.90;;;;;;;;;;4918272;29;20118;-70
2024/01/13 18:44:20;;;;;;;13.52;8.95;;;;;;;;;;4917009;29;20055;-72
2024/01/13 18:46:46;;;;;;;13.82;9.77;;;;;;;;;;4917114;29;20038;-72
2024/01/13 18:49:11;;;;;;;17.48;11.15;;;;;;;;;;4916910;29;20020;-71
2024/01/13 18:51:37;;;;;;;18.58;10.27;;;;;;;;;;4917184;29;20187;-72
2024/01/13 18:54:03;;;;;;;15.32;10.05;;;;;;;;;;4917282;29;20059;-72
2024/01/13 18:56:31;;;;;;;15.05;9.13;;;;;;;;;;4917346;29;20024;-70
2024/01/13 18:58:57;;;;;;;16.90;9.20;;;;;;;;;;4917032;29;20028;-71
2024/01/13 19:01:24;;;;;;;15.02;8.95;;;;;;;;;;4917243;29;20032;-70
2024/01/13 19:03:49;;;;;;;15.25;9.32;;;;;;;;;;4917723;29;20032;-68
2024/01/13 19:06:22;;;;;;;13.98;8.98;;;;;;;;;;4917378;29;20105;-68
2024/01/13 19:08:56;;;;;;;12.82;8.52;;;;;;;;;;4916658;29;20031;-67
2024/01/13 19:11:24;;;;;;;15.07;8.55;;;;;;;;;;4917223;29;20376;-68
2024/01/13 19:13:52;;;;;;;12.98;8.38;;;;;;;;;;4916981;29;20039;-67
2024/01/13 19:16:17;;;;;;;13.52;8.55;;;;;;;;;;4916918;29;20386;-68
2024/01/13 19:18:44;;;;;;;11.93;8.20;;;;;;;;;;4917124;29;20068;-68
2024/01/13 19:21:10;;;;;;;13.55;8.68;;;;;;;;;;4917215;29;20035;-68
2024/01/13 19:23:37;;;;;;;12.00;7.97;;;;;;;;;;4916260;29;20036;-68
2024/01/13 19:26:04;;;;;;;14.52;7.70;;;;;;;;;;4916879;29;20027;-68
2024/01/13 19:28:30;;;;;;;14.95;8.27;;;;;;;;;;4916797;29;20036;-68
2024/01/13 19:30:56;;;;;;;10.38;7.68;;;;;;;;;;4916560;29;20036;-68
2024/01/13 19:33:22;;;;;;;10.93;7.53;;;;;;;;;;4916351;29;20384;-67
2024/01/13 19:35:47;;;;;;;13.38;8.07;;;;;;;;;;4916428;29;20300;-67
2024/01/13 19:38:13;;;;;;;11.55;7.85;;;;;;;;;;4915993;29;20116;-66
2024/01/13 19:40:38;;;;;;;12.13;8.00;;;;;;;;;;4916552;29;20023;-66
2024/01/13 19:43:04;;;;;;;11.48;8.05;;;;;;;;;;4916215;29;20028;-68
2024/01/13 19:45:30;;;;;;;14.75;7.22;;;;;;;;;;4916426;29;20083;-67
2024/01/13 19:47:55;;;;;;;12.23;7.25;;;;;;;;;;4916699;29;20081;-67
2024/01/13 19:50:21;;;;;;;14.07;8.18;;;;;;;;;;4916661;29;20047;-65
2024/01/13 19:52:46;;;;;;;13.07;7.25;;;;;;;;;;4916674;29;20028;-71
2024/01/13 19:55:13;;;;;;;11.70;7.15;;;;;;;;;;4916340;29;20385;-67
2024/01/13 19:57:38;;;;;;;12.55;7.25;;;;;;;;;;4916812;29;20385;-66
2024/01/13 20:00:06;;;;;;;10.00;7.10;;;;;;;;;;4916147;29;20028;-67
2024/01/13 20:02:31;;;;;;;12.75;7.15;;;;;;;;;;4916287;29;20503;-67
2024/01/13 20:04:57;;;;;;;12.05;6.90;;;;;;;;;;4916293;29;20032;-70
2024/01/13 20:07:24;;;;;;;11.60;7.10;;;;;;;;;;4916231;29;20032;-67
2024/01/13 20:09:51;;;;;;;10.95;7.25;;;;;;;;;;4915757;29;20111;-69
2024/01/13 20:12:18;;;;;;;11.27;7.30;;;;;;;;;;4915905;29;20032;-65
2024/01/13 20:14:43;;;;;;;11.10;6.65;;;;;;;;;;4899317;29;20115;-67
2024/01/13 20:17:10;;;;;;;12.02;7.28;;;;;;;;;;4916918;29;20051;-67
2024/01/13 20:19:36;;;;;;;12.93;6.82;;;;;;;;;;4915726;29;20024;-67
2024/01/13 20:22:02;;;;;;;12.82;7.07;;;;;;;;;;4916095;29;20054;-66
2024/01/13 20:24:28;;;;;;;9.80;6.63;;;;;;;;;;4916316;29;20461;-67
2024/01/13 20:26:54;;;;;;;12.80;7.07;;;;;;;;;;4916203;29;20076;-67
2024/01/13 20:29:20;;;;;;;9.75;6.65;;;;;;;;;;4916145;29;20032;-66
2024/01/13 20:31:45;;;;;;;8.68;6.22;;;;;;;;;;4915799;29;20043;-67
2024/01/13 20:34:12;;;;;;;12.25;6.57;;;;;;;;;;4918426;29;20465;-67
2024/01/13 20:36:40;;;;;;;10.02;6.80;;;;;;;;;;4920157;29;20445;-67
2024/01/13 20:39:10;;;;;;;9.52;6.45;;;;;;;;;;4919404;29;20470;-67
2024/01/13 20:41:35;;;;;;;9.07;6.20;;;;;;;;;;4919791;29;20028;-67
2024/01/13 20:44:01;;;;;;;8.88;6.50;;;;;;;;;;4919806;29;20190;-67
2024/01/13 20:46:27;;;;;;;9.98;6.38;;;;;;;;;;4920025;29;20044;-67
2024/01/13 20:48:52;;;;;;;8.32;6.22;;;;;;;;;;4919653;29;20123;-67
2024/01/13 20:51:18;;;;;;;13.15;6.70;;;;;;;;;;4919505;29;20028;-72
2024/01/13 20:53:44;;;;;;;10.20;6.75;;;;;;;;;;4919700;29;20036;-67
2024/01/13 20:56:10;;;;;;;10.15;6.85;;;;;;;;;;4919041;29;20540;-68
2024/01/13 20:58:36;;;;;;;10.48;6.20;;;;;;;;;;4919048;29;20043;-69
2024/01/13 21:01:04;;;;;;;11.95;7.03;;;;;;;;;;4919037;29;20520;-68
2024/01/13 21:03:29;;;;;;;8.88;6.03;;;;;;;;;;4919059;29;20071;-66
2024/01/13 21:05:57;;;;;;;10.80;6.75;;;;;;;;;;4917966;29;20048;-69
2024/01/13 21:08:23;;;;;;;9.52;6.68;;;;;;;;;;4909396;29;20029;-67
2024/01/13 21:10:50;;;;;;;9.60;6.30;;;;;;;;;;4908208;29;20036;-68
2024/01/13 21:13:16;;;;;;;10.07;6.32;;;;;;;;;;4909865;29;20512;-68
2024/01/13 21:15:41;;;;;;;9.77;6.40;;;;;;;;;;4913905;29;20036;-65
2024/01/13 21:18:08;;;;;;;10.07;6.65;;;;;;;;;;4916359;29;20115;-67
2024/01/13 21:20:34;;;;;;;11.25;6.70;;;;;;;;;;4908463;29;20109;-66
2024/01/13 21:22:59;;;;;;;9.93;6.28;;;;;;;;;;4909003;29;20452;-66
2024/01/13 21:25:25;;;;;;;9.15;6.00;;;;;;;;;;4910188;29;20036;-66
2024/01/13 21:27:52;;;;;;;12.20;6.40;;;;;;;;;;4908157;29;20024;-66
2024/01/13 21:30:18;;;;;;;9.70;6.32;;;;;;;;;;4906319;29;20036;-66
2024/01/13 21:32:44;;;;;;;8.82;6.38;;;;;;;;;;4899860;29;20088;-66
2024/01/13 21:35:19;;;;;;;8.85;5.97;;;;;;;;;;4900342;29;20029;-66
2024/01/13 21:37:45;;;;;;;10.65;6.40;;;;;;;;;;4900501;29;20052;-67
2024/01/13 21:40:12;;;;;;;9.52;5.68;;;;;;;;;;4899657;29;20040;-67
2024/01/13 21:42:39;;;;;;;10.95;5.55;;;;;;;;;;4882850;29;20084;-65
2024/01/13 21:45:08;;;;;;;9.63;6.75;;;;;;;;;;4898614;29;20079;-65
2024/01/13 21:47:34;;;;;;;9.27;6.30;;;;;;;;;;4900088;29;20438;-66
2024/01/13 21:50:00;;;;;;;10.25;6.40;;;;;;;;;;4899745;29;20033;-66
2024/01/13 21:52:26;;;;;;;8.15;6.05;;;;;;;;;;4902213;29;20193;-66
2024/01/13 21:54:52;;;;;;;9.73;6.07;;;;;;;;;;4899714;29;20024;-68
2024/01/13 21:57:18;;;;;;;10.23;6.40;;;;;;;;;;4899832;29;20031;-67
2024/01/13 21:59:44;;;;;;;8.75;6.05;;;;;;;;;;4899254;29;20024;-67
2024/01/13 22:02:10;;;;;;;8.65;6.00;;;;;;;;;;4899519;29;20028;-67
2024/01/13 22:04:37;;;;;;;8.63;5.80;;;;;;;;;;4899821;29;20032;-68
2024/01/13 22:07:04;;;;;;;10.20;5.82;;;;;;;;;;4899711;29;20055;-68
2024/01/13 22:09:30;;;;;;;10.82;6.60;;;;;;;;;;4899523;29;20408;-66
2024/01/13 22:11:56;;;;;;;10.15;6.20;;;;;;;;;;4899631;29;20108;-68
2024/01/13 22:14:25;;;;;;;10.82;5.85;;;;;;;;;;4899357;29;20088;-69
2024/01/13 22:16:51;;;;;;;11.15;5.78;;;;;;;;;;4899373;29;20031;-67
2024/01/13 22:19:17;;;;;;;8.65;5.88;;;;;;;;;;4899350;29;20032;-66
2024/01/13 22:21:42;;;;;;;8.80;5.85;;;;;;;;;;4899136;29;20080;-69
2024/01/13 22:24:08;;;;;;;9.30;6.68;;;;;;;;;;4899540;29;20036;-68
2024/01/13 22:26:34;;;;;;;10.25;6.53;;;;;;;;;;4899118;29;20035;-70
2024/01/13 22:29:00;;;;;;;7.72;5.85;;;;;;;;;;4899141;29;20103;-70
2024/01/13 22:31:25;;;;;;;6.80;5.55;;;;;;;;;;4899099;29;20128;-66
2024/01/13 22:33:51;;;;;;;8.57;6.28;;;;;;;;;;4902535;29;20041;-66
2024/01/13 22:36:17;;;;;;;7.90;5.90;;;;;;;;;;4909298;29;20039;-70
2024/01/13 22:38:42;;;;;;;8.68;5.95;;;;;;;;;;4901792;29;20024;-67
2024/01/13 22:41:13;;;;;;;12.23;6.82;;;;;;;;;;4899358;29;20059;-68
2024/01/13 22:43:39;;;;;;;9.77;6.15;;;;;;;;;;4899103;29;20035;-66
2024/01/13 22:46:05;;;;;;;9.35;6.30;;;;;;;;;;4899359;29;20040;-66
2024/01/13 22:48:30;;;;;;;8.80;6.15;;;;;;;;;;4899314;29;20157;-67
2024/01/13 22:50:56;;;;;;;12.35;6.35;;;;;;;;;;4898794;29;20038;-67
2024/01/13 22:53:22;;;;;;;12.43;6.32;;;;;;;;;;4899228;29;20381;-67
2024/01/13 22:55:48;;;;;;;9.15;6.10;;;;;;;;;;4898766;29;20032;-67
2024/01/13 22:58:14;;;;;;;10.13;6.32;;;;;;;;;;4881863;29;20389;-66
2024/01/13 23:00:40;;;;;;;8.93;6.55;;;;;;;;;;4898671;29;20021;-65
2024/01/13 23:03:06;;;;;;;7.45;6.38;;;;;;;;;;4898829;29;20606;-66
2024/01/13 23:05:33;;;;;;;9.80;6.50;;;;;;;;;;4898979;29;20028;-66
2024/01/13 23:07:59;;;;;;;9.45;7.15;;;;;;;;;;4905830;29;20082;-67
2024/01/13 23:10:25;;;;;;;10.15;6.25;;;;;;;;;;4911902;29;20032;-67
2024/01/13 23:12:54;;;;;;;10.85;7.00;;;;;;;;;;4913998;29;20029;-67
2024/01/13 23:15:23;;;;;;;11.95;7.28;;;;;;;;;;4906535;29;20044;-66
2024/01/13 23:17:52;;;;;;;9.93;6.78;;;;;;;;;;4907144;29;20031;-66
2024/01/13 23:20:18;;;;;;;11.02;7.38;;;;;;;;;;4914737;29;20024;-70
2024/01/13 23:22:44;;;;;;;10.70;6.85;;;;;;;;;;4917365;29;20089;-67
2024/01/13 23:25:11;;;;;;;11.43;7.47;;;;;;;;;;4916869;29;20032;-65
2024/01/13 23:27:36;;;;;;;10.13;6.80;;;;;;;;;;4915453;29;20028;-67
2024/01/13 23:30:04;;;;;;;8.65;6.70;;;;;;;;;;4917207;29;20032;-66
2024/01/13 23:32:31;;;;;;;14.63;7.00;;;;;;;;;;4914838;29;20095;-66
2024/01/13 23:34:57;;;;;;;9.98;6.68;;;;;;;;;;4915775;29;20081;-65
2024/01/13 23:37:24;;;;;;;11.85;7.57;;;;;;;;;;4914931;29;20470;-65
2024/01/13 23:39:51;;;;;;;13.00;6.60;;;;;;;;;;4915081;29;20040;-64
2024/01/13 23:42:18;;;;;;;11.40;7.28;;;;;;;;;;4915226;29;20088;-64
2024/01/13 23:44:44;;;;;;;9.35;6.30;;;;;;;;;;4914224;29;20048;-65
2024/01/13 23:47:10;;;;;;;9.85;6.57;;;;;;;;;;4894411;29;20032;-68
2024/01/13 23:49:36;;;;;;;9.75;6.85;;;;;;;;;;4897035;29;20074;-66
2024/01/13 23:52:02;;;;;;;11.27;7.30;;;;;;;;;;4915975;29;20608;-67
2024/01/13 23:54:28;;;;;;;11.75;6.97;;;;;;;;;;4914476;29;20107;-67
2024/01/13 23:56:54;;;;;;;9.80;7.25;;;;;;;;;;4915230;29;20043;-68
2024/01/13 23:59:21;;;;;;;11.88;6.45;;;;;;;;;;4915352;29;20036;-66
